createdAt,value
2023-04-27T00:00:23.859Z,8.50
2023-04-27T00:03:29.583Z,9.00
2023-04-27T00:06:13.148Z,8.70
2023-04-27T00:08:56.798Z,8.70
2023-04-27T00:11:39.987Z,7.60
2023-04-27T00:14:23.213Z,8.90
2023-04-27T00:17:06.538Z,8.20
2023-04-27T00:19:49.742Z,9.20
2023-04-27T00:22:32.911Z,9.40
2023-04-27T00:25:16.259Z,9.90
2023-04-27T00:27:59.593Z,8.40
2023-04-27T00:30:42.978Z,7.80
2023-04-27T00:33:26.536Z,8.80
2023-04-27T00:36:09.897Z,8.10
2023-04-27T00:38:53.575Z,8.70
2023-04-27T00:41:40.196Z,8.70
2023-04-27T00:44:27.611Z,9.60
2023-04-27T00:47:12.716Z,8.80
2023-04-27T00:49:57.185Z,9.00
2023-04-27T00:52:42.196Z,8.90
2023-04-27T00:55:26.058Z,9.70
2023-04-27T00:58:09.463Z,9.50
2023-04-27T01:00:54.299Z,9.30
2023-04-27T01:04:28.333Z,10.20
2023-04-27T01:07:57.012Z,8.40
2023-04-27T01:11:50.797Z,8.90
2023-04-27T01:15:27.586Z,8.20
2023-04-27T01:19:03.919Z,8.20
2023-04-27T01:22:30.820Z,8.90
2023-04-27T01:26:19.294Z,8.20
2023-04-27T01:30:23.198Z,7.60
2023-04-27T01:33:47.132Z,9.20
2023-04-27T01:37:00.050Z,8.90
2023-04-27T01:40:46.929Z,8.30
2023-04-27T01:44:24.648Z,8.30
2023-04-27T01:47:50.470Z,8.50
2023-04-27T01:51:35.895Z,9.40
2023-04-27T01:55:11.787Z,8.40
2023-04-27T01:58:48.178Z,8.90
2023-04-27T02:02:00.795Z,9.20
2023-04-27T02:05:56.039Z,8.10
2023-04-27T02:09:10.571Z,8.40
2023-04-27T02:12:47.428Z,8.80
2023-04-27T02:16:07.642Z,7.70
2023-04-27T02:19:30.250Z,7.10
2023-04-27T02:22:58.486Z,7.90
2023-04-27T02:26:29.361Z,8.00
2023-04-27T02:30:33.245Z,8.40
2023-04-27T02:33:56.966Z,8.30
2023-04-27T02:37:30.385Z,7.50
2023-04-27T02:40:56.207Z,7.90
2023-04-27T02:44:33.073Z,7.70
2023-04-27T02:51:28.976Z,7.20
2023-04-27T02:55:16.588Z,8.40
2023-04-27T02:58:46.477Z,7.60
2023-04-27T03:01:48.674Z,7.20
2023-04-27T03:05:37.249Z,7.80
2023-04-27T03:09:21.152Z,8.40
2023-04-27T03:13:04.999Z,8.30
2023-04-27T03:16:11.426Z,7.60
2023-04-27T03:19:37.119Z,8.10
2023-04-27T03:23:32.449Z,8.00
2023-04-27T03:26:45.039Z,8.10
2023-04-27T03:30:11.208Z,8.30
2023-04-27T03:33:48.312Z,7.40
2023-04-27T03:37:16.198Z,8.00
2023-04-27T03:40:02.036Z,8.90
2023-04-27T03:43:53.596Z,7.90
2023-04-27T03:47:28.136Z,8.30
2023-04-27T03:50:58.434Z,7.70
2023-04-27T03:54:42.389Z,7.60
2023-04-27T03:58:14.928Z,8.50
2023-04-27T04:02:10.222Z,8.00
2023-04-27T04:05:51.734Z,9.30
2023-04-27T04:09:33.633Z,7.80
2023-04-27T04:13:26.577Z,7.40
2023-04-27T04:17:20.867Z,8.60
2023-04-27T04:20:38.099Z,8.50
2023-04-27T04:24:11.690Z,7.50
2023-04-27T04:27:28.599Z,8.90
2023-04-27T04:31:32.720Z,7.20
2023-04-27T04:34:29.731Z,7.50
2023-04-27T04:38:06.679Z,7.70
2023-04-27T04:41:40.555Z,7.90
2023-04-27T04:45:07.566Z,7.50
2023-04-27T04:48:54.942Z,6.50
2023-04-27T04:52:29.318Z,6.80
2023-04-27T04:56:14.442Z,6.90
2023-04-27T04:59:53.280Z,6.20
2023-04-27T05:03:08.655Z,6.20
2023-04-27T05:06:30.320Z,6.00
2023-04-27T05:10:06.135Z,5.80
2023-04-27T05:13:32.673Z,6.00
2023-04-27T05:16:55.442Z,5.90
2023-04-27T05:20:02.050Z,5.70
2023-04-27T05:23:06.860Z,5.40
2023-04-27T05:26:12.186Z,5.60
2023-04-27T05:29:10.532Z,5.90
2023-04-27T05:32:10.319Z,6.30
2023-04-27T05:35:20.855Z,6.90
2023-04-27T05:38:36.086Z,7.70
2023-04-27T05:41:58.545Z,6.50
2023-04-27T05:45:08.485Z,5.40
2023-04-27T05:47:57.569Z,5.70
2023-04-27T05:51:03.998Z,5.50
2023-04-27T05:54:08.087Z,6.10
2023-04-27T05:57:13.614Z,6.10
2023-04-27T06:00:46.495Z,5.10
2023-04-27T06:03:53.043Z,5.30
2023-04-27T06:07:29.074Z,5.40
2023-04-27T06:10:35.613Z,5.50
2023-04-27T06:13:39.037Z,5.60
2023-04-27T06:16:36.329Z,5.80
2023-04-27T06:19:52.676Z,5.90
2023-04-27T06:22:57.994Z,5.90
2023-04-27T06:26:05.211Z,5.60
2023-04-27T06:29:04.829Z,5.20
2023-04-27T06:32:37.379Z,4.90
2023-04-27T06:41:55.316Z,5.30
2023-04-27T06:45:09.904Z,5.70
2023-04-27T06:48:06.363Z,5.20
2023-04-27T06:51:33.650Z,4.60
2023-04-27T06:54:31.197Z,5.70
2023-04-27T06:57:44.960Z,4.70
2023-04-27T07:00:52.757Z,4.30
2023-04-27T07:03:43.497Z,4.00
2023-04-27T07:06:34.800Z,3.90
2023-04-27T07:10:05.758Z,4.70
2023-04-27T07:12:52.106Z,4.80
2023-04-27T07:15:40.765Z,3.80
2023-04-27T07:18:49.731Z,3.90
2023-04-27T07:22:10.249Z,3.60
2023-04-27T07:28:10.050Z,3.50
2023-04-27T07:30:58.171Z,3.60
2023-04-27T07:34:03.109Z,4.00
2023-04-27T07:36:56.568Z,3.70
2023-04-27T07:39:49.056Z,3.90
2023-04-27T07:42:54.636Z,3.30
2023-04-27T07:45:44.074Z,3.10
2023-04-27T07:48:49.617Z,4.10
2023-04-27T07:51:43.076Z,3.50
2023-04-27T07:54:48.933Z,3.70
2023-04-27T07:57:36.918Z,4.60
2023-04-27T08:00:42.832Z,3.20
2023-04-27T08:03:33.846Z,3.20
2023-04-27T08:06:38.031Z,2.90
2023-04-27T08:09:24.657Z,3.40
2023-04-27T08:12:29.367Z,2.70
2023-04-27T08:15:53.852Z,2.60
2023-04-27T08:18:37.054Z,2.30
2023-04-27T08:21:19.976Z,2.90
2023-04-27T08:24:04.222Z,2.40
2023-04-27T08:26:50.420Z,2.30
2023-04-27T08:29:33.849Z,2.80
2023-04-27T08:32:22.811Z,3.30
2023-04-27T08:35:19.412Z,2.70
2023-04-27T08:38:02.838Z,2.60
2023-04-27T08:41:04.767Z,3.20
2023-04-27T08:43:59.582Z,2.90
2023-04-27T08:46:45.368Z,2.20
2023-04-27T08:49:31.080Z,2.90
2023-04-27T08:52:23.460Z,2.90
2023-04-27T08:55:14.432Z,3.00
2023-04-27T08:58:26.849Z,2.40
2023-04-27T09:01:26.353Z,2.30
2023-04-27T09:05:02.356Z,2.50
2023-04-27T09:08:26.816Z,2.50
2023-04-27T09:11:16.125Z,2.20
2023-04-27T09:14:25.810Z,2.80
2023-04-27T09:17:30.773Z,2.90
2023-04-27T09:20:34.658Z,2.70
2023-04-27T09:23:51.202Z,2.20
2023-04-27T09:26:57.590Z,2.40
2023-04-27T09:30:13.842Z,2.30
2023-04-27T09:33:13.084Z,2.30
2023-04-27T09:36:00.146Z,2.70
2023-04-27T09:38:43.685Z,4.00
2023-04-27T09:41:28.365Z,2.90
2023-04-27T09:44:11.918Z,2.10
2023-04-27T09:46:58.186Z,3.00
2023-04-27T09:49:41.459Z,4.90
2023-04-27T09:52:24.746Z,2.40
2023-04-27T09:55:15.718Z,1.80
2023-04-27T09:58:30.839Z,2.60
2023-04-27T10:01:37.186Z,2.40
2023-04-27T10:04:35.936Z,2.60
2023-04-27T10:07:19.249Z,2.20
2023-04-27T10:10:04.259Z,1.60
2023-04-27T10:12:58.699Z,2.30
2023-04-27T10:15:41.839Z,2.70
2023-04-27T10:18:30.702Z,3.00
2023-04-27T10:21:14.100Z,2.40
2023-04-27T10:24:09.747Z,2.30
2023-04-27T10:26:52.782Z,2.30
2023-04-27T10:29:37.884Z,3.30
2023-04-27T10:32:24.472Z,2.00
2023-04-27T10:35:09.450Z,2.60
2023-04-27T10:37:53.270Z,2.60
2023-04-27T10:40:58.337Z,2.20
2023-04-27T10:43:41.497Z,2.00
2023-04-27T10:46:24.717Z,2.40
2023-04-27T10:49:17.420Z,2.40
2023-04-27T10:54:50.630Z,3.00
2023-04-27T10:57:33.862Z,2.00
2023-04-27T11:00:28.500Z,2.10
2023-04-27T11:03:21.558Z,2.20
2023-04-27T11:06:05.971Z,2.00
2023-04-27T11:08:48.943Z,2.90
2023-04-27T11:11:31.929Z,2.50
2023-04-27T11:14:23.757Z,1.60
2023-04-27T11:17:07.206Z,1.70
2023-04-27T11:19:50.090Z,1.90
2023-04-27T11:22:33.563Z,2.50
2023-04-27T11:25:17.046Z,3.80
2023-04-27T11:28:02.907Z,1.90
2023-04-27T11:30:46.157Z,1.90
2023-04-27T11:33:29.601Z,2.20
2023-04-27T11:36:17.636Z,2.10
2023-04-27T11:39:00.955Z,2.20
2023-04-27T11:41:46.516Z,2.10
2023-04-27T11:44:29.987Z,2.20
2023-04-27T11:47:19.417Z,2.50
2023-04-27T11:50:08.940Z,2.20
2023-04-27T11:52:53.345Z,1.80
2023-04-27T11:55:45.953Z,2.40
2023-04-27T11:58:39.803Z,2.00
2023-04-27T12:01:34.826Z,2.10
2023-04-27T12:04:21.747Z,2.60
2023-04-27T12:07:05.231Z,2.00
2023-04-27T12:09:48.770Z,2.30
2023-04-27T12:12:32.201Z,2.10
2023-04-27T12:15:17.781Z,2.00
2023-04-27T12:18:01.409Z,4.00
2023-04-27T12:20:44.896Z,1.60
2023-04-27T12:23:37.266Z,1.80
2023-04-27T12:26:20.621Z,2.10
2023-04-27T12:29:04.438Z,2.10
2023-04-27T12:31:48.160Z,1.60
2023-04-27T12:34:36.006Z,2.10
2023-04-27T12:37:19.216Z,2.40
2023-04-27T12:40:05.972Z,2.00
2023-04-27T12:42:49.359Z,2.40
2023-04-27T12:45:32.448Z,2.20
2023-04-27T12:48:17.582Z,2.50
2023-04-27T12:51:04.320Z,3.00
2023-04-27T12:53:47.599Z,2.20
2023-04-27T12:56:51.909Z,2.00
2023-04-27T12:59:35.899Z,2.10
2023-04-27T13:02:21.820Z,2.40
2023-04-27T13:05:07.987Z,2.30
2023-04-27T13:07:51.100Z,1.90
2023-04-27T13:10:34.300Z,2.00
2023-04-27T13:13:17.445Z,1.50
2023-04-27T13:16:00.462Z,2.20
2023-04-27T13:18:49.542Z,1.90
2023-04-27T13:21:33.342Z,1.90
2023-04-27T13:24:18.117Z,1.70
2023-04-27T13:27:01.421Z,1.90
2023-04-27T13:29:44.444Z,2.10
2023-04-27T13:32:27.466Z,2.20
2023-04-27T13:35:10.862Z,1.90
2023-04-27T13:37:56.973Z,1.90
2023-04-27T13:40:43.021Z,2.10
2023-04-27T13:43:27.232Z,2.50
2023-04-27T13:46:10.719Z,1.90
2023-04-27T13:48:56.094Z,2.30
2023-04-27T13:51:40.719Z,2.00
2023-04-27T13:54:24.246Z,2.30
2023-04-27T13:57:07.235Z,2.60
2023-04-27T13:59:50.398Z,2.80
2023-04-27T14:02:34.396Z,2.60
2023-04-27T14:05:17.809Z,2.40
2023-04-27T14:08:01.241Z,2.30
2023-04-27T14:10:49.412Z,2.10
2023-04-27T14:13:32.665Z,3.00
2023-04-27T14:16:15.957Z,1.90
2023-04-27T14:18:59.133Z,1.90
2023-04-27T14:21:42.114Z,1.90
2023-04-27T14:24:26.266Z,1.90
2023-04-27T14:27:09.192Z,2.90
2023-04-27T14:29:55.512Z,2.00
2023-04-27T14:32:38.647Z,1.90
2023-04-27T14:35:23.710Z,2.00
2023-04-27T14:38:07.216Z,1.50
2023-04-27T14:40:50.346Z,1.80
2023-04-27T14:43:42.194Z,1.50
2023-04-27T14:46:25.719Z,1.70
2023-04-27T14:49:09.173Z,2.20
2023-04-27T14:51:52.482Z,3.60
2023-04-27T14:54:38.800Z,1.70
2023-04-27T14:57:42.105Z,3.10
2023-04-27T15:00:25.246Z,2.20
2023-04-27T15:03:09.130Z,1.60
2023-04-27T15:05:52.396Z,2.10
2023-04-27T15:08:35.566Z,2.90
2023-04-27T15:11:18.615Z,2.10
2023-04-27T15:14:01.623Z,1.80
2023-04-27T15:16:47.410Z,1.80
2023-04-27T15:19:30.629Z,1.90
2023-04-27T15:22:16.495Z,2.40
2023-04-27T15:25:02.586Z,2.20
2023-04-27T15:27:46.010Z,2.20
2023-04-27T15:30:34.597Z,2.10
2023-04-27T15:33:18.836Z,4.20
2023-04-27T15:36:02.407Z,3.80
2023-04-27T15:38:51.070Z,2.80
2023-04-27T15:41:40.508Z,2.90
2023-04-27T15:44:26.235Z,3.30
2023-04-27T15:47:12.604Z,2.90
2023-04-27T15:49:57.936Z,6.10
2023-04-27T15:52:47.962Z,3.70
2023-04-27T15:55:31.716Z,2.60
2023-04-27T15:58:36.296Z,2.30
2023-04-27T16:01:19.903Z,2.50
2023-04-27T16:04:08.741Z,2.00
2023-04-27T16:06:54.958Z,2.30
2023-04-27T16:09:38.233Z,2.40
2023-04-27T16:12:21.582Z,2.40
2023-04-27T16:15:06.920Z,3.10
2023-04-27T16:17:52.200Z,3.70
2023-04-27T16:20:36.533Z,13.90
2023-04-27T16:23:22.069Z,9.40
2023-04-27T16:26:08.721Z,4.60
2023-04-27T16:29:05.103Z,33.10
2023-04-27T16:31:53.742Z,10.30
2023-04-27T16:34:37.495Z,4.70
2023-04-27T16:37:23.539Z,2.00
2023-04-27T16:40:10.077Z,3.50
2023-04-27T16:43:16.826Z,16.60
2023-04-27T16:46:03.310Z,16.20
2023-04-27T16:48:52.263Z,3.70
2023-04-27T16:51:35.854Z,4.10
2023-04-27T16:54:21.699Z,4.00
2023-04-27T16:57:07.989Z,3.90
2023-04-27T16:59:53.645Z,15.20
2023-04-27T17:02:43.956Z,7.10
2023-04-27T17:05:40.490Z,6.20
2023-04-27T17:08:26.973Z,5.20
2023-04-27T17:11:20.929Z,3.10
2023-04-27T17:14:06.676Z,2.40
2023-04-27T17:16:55.582Z,4.40
2023-04-27T17:19:51.887Z,3.80
2023-04-27T17:23:15.721Z,6.80
2023-04-27T17:25:59.044Z,3.30
2023-04-27T17:28:42.367Z,3.00
2023-04-27T17:31:26.286Z,3.50
2023-04-27T17:34:12.777Z,3.40
2023-04-27T17:36:58.582Z,5.10
2023-04-27T17:40:07.955Z,4.40
2023-04-27T17:43:00.313Z,3.00
2023-04-27T17:46:07.505Z,3.00
2023-04-27T17:48:53.327Z,2.50
2023-04-27T17:51:36.409Z,2.70
2023-04-27T17:54:19.945Z,3.00
2023-04-27T17:57:10.721Z,3.40
2023-04-27T17:59:59.487Z,3.20
2023-04-27T18:02:43.090Z,3.50
2023-04-27T18:05:28.610Z,3.20
2023-04-27T18:08:12.012Z,3.70
2023-04-27T18:10:55.841Z,3.20
2023-04-27T18:13:39.234Z,3.20
2023-04-27T18:16:25.251Z,4.30
2023-04-27T18:19:10.321Z,4.00
2023-04-27T18:21:53.644Z,3.40
2023-04-27T18:24:37.177Z,2.80
2023-04-27T18:27:23.573Z,4.00
2023-04-27T18:30:19.375Z,5.10
2023-04-27T18:33:20.402Z,5.40
2023-04-27T18:36:16.661Z,5.30
2023-04-27T18:39:27.688Z,5.30
2023-04-27T18:42:54.301Z,5.40
2023-04-27T18:45:57.621Z,5.30
2023-04-27T18:49:03.724Z,4.30
2023-04-27T18:51:56.048Z,4.50
2023-04-27T18:55:33.956Z,4.30
2023-04-27T18:59:14.147Z,4.40
2023-04-27T19:02:30.176Z,3.60
2023-04-27T19:05:52.647Z,3.50
2023-04-27T19:09:23.747Z,3.70
2023-04-27T19:12:49.215Z,3.30
2023-04-27T19:16:20.768Z,3.30
2023-04-27T19:19:43.573Z,3.40
2023-04-27T19:23:00.263Z,3.80
2023-04-27T19:26:13.995Z,4.20
2023-04-27T19:29:52.717Z,5.90
2023-04-27T19:33:36.827Z,5.70
2023-04-27T19:36:51.730Z,5.10
2023-04-27T19:39:49.491Z,5.30
2023-04-27T19:43:14.957Z,4.70
2023-04-27T19:46:58.796Z,6.20
2023-04-27T19:50:21.696Z,6.80
2023-04-27T19:53:31.404Z,6.80
2023-04-27T19:57:04.152Z,5.60
2023-04-27T20:00:11.614Z,6.10
2023-04-27T20:03:38.790Z,6.40
2023-04-27T20:06:43.389Z,7.90
2023-04-27T20:10:30.723Z,6.80
2023-04-27T20:14:33.174Z,8.20
2023-04-27T20:18:25.837Z,7.40
2023-04-27T20:22:19.758Z,7.60
2023-04-27T20:25:41.372Z,6.70
2023-04-27T20:32:09.462Z,7.00
2023-04-27T20:35:21.159Z,6.80
2023-04-27T20:38:37.129Z,7.00
2023-04-27T20:42:26.948Z,7.80
2023-04-27T20:45:43.734Z,6.80
2023-04-27T20:49:36.173Z,7.20
2023-04-27T20:53:31.015Z,8.70
2023-04-27T20:57:05.030Z,9.50
2023-04-27T21:00:37.481Z,9.20
2023-04-27T21:04:13.374Z,8.70
2023-04-27T21:07:42.978Z,9.30
2023-04-27T21:11:19.561Z,9.10
2023-04-27T21:15:13.567Z,8.90
2023-04-27T21:19:10.561Z,8.60
2023-04-27T21:22:56.863Z,8.60
2023-04-27T21:27:00.707Z,9.10
2023-04-27T21:34:09.117Z,9.40
2023-04-27T21:37:53.062Z,8.10
2023-04-27T21:41:19.430Z,8.90
2023-04-27T21:45:03.157Z,10.00
2023-04-27T21:48:49.848Z,9.30
2023-04-27T21:52:28.003Z,9.30
2023-04-27T21:56:24.840Z,9.80
2023-04-27T21:59:35.789Z,9.80
2023-04-27T22:02:45.605Z,11.00
2023-04-27T22:06:09.612Z,11.30
2023-04-27T22:09:29.478Z,11.50
2023-04-27T22:13:33.336Z,13.00
2023-04-27T22:17:27.821Z,13.10
2023-04-27T22:20:56.189Z,13.80
2023-04-27T22:25:00.082Z,13.00
2023-04-27T22:28:55.108Z,11.00
2023-04-27T22:32:48.991Z,12.40
2023-04-27T22:36:32.987Z,12.70
2023-04-27T22:40:29.944Z,13.60
2023-04-27T22:44:03.851Z,12.30
2023-04-27T22:51:13.664Z,14.20
2023-04-27T22:55:07.470Z,14.90
2023-04-27T22:59:00.480Z,16.90
2023-04-27T23:02:47.290Z,16.70
2023-04-27T23:06:44.156Z,18.40
2023-04-27T23:10:06.185Z,19.00
2023-04-27T23:13:51.384Z,16.60
2023-04-27T23:17:35.641Z,17.80
2023-04-27T23:21:24.735Z,16.60
2023-04-27T23:24:50.213Z,15.50
2023-04-27T23:28:29.709Z,14.80
2023-04-27T23:32:08.721Z,15.90
2023-04-27T23:39:35.897Z,13.50
2023-04-27T23:43:39.980Z,15.40
2023-04-27T23:47:03.732Z,16.30
2023-04-27T23:51:07.952Z,16.60
2023-04-27T23:54:45.763Z,18.40
2023-04-27T23:58:28.469Z,19.70
